Legend Of The Seas — C6SL5 — position and weather

sailwx.info

Track history (hours):
 
Tides and Currents Weather Stations Pressure Air Temp Water Temp Dewpoint Dewpoint Depression Visibility Wind Speed Wind Dir Waves Ship Positions

Legend Of The Seas

Operator: Royal Caribbean Cruises Ltd

Last reported at 2014-Aug-27 17:34 UTC. Time now 2014-Aug-28 13:20 UTC.
Position N 59°04' E 005°10'.

Type: Passenger vessel. MMSI: 311378000.

Date/timePositionNaut miles runAvg speedWind from/ knotsBaromVisibWave heightAir tempDewpointWater temp
2014-Aug-27 17:34N 59°04' E 005°10'1313.1
2014-Aug-27 16:33N 59°03' E 005°36'6 5.6
2014-Aug-27 15:32N 58°59' E 005°43'0 0.0
2014-Aug-27 14:32N 58°59' E 005°43'0 0.0
2014-Aug-27 13:32N 58°59' E 005°43'0 0.0
2014-Aug-27 12:32N 58°59' E 005°43'0 0.0
2014-Aug-27 11:32N 58°59' E 005°43'0 0.0
2014-Aug-27 10:32N 58°59' E 005°43'0 0.0
2014-Aug-27 09:32N 58°59' E 005°43'0 0.0
2014-Aug-27 08:32N 58°59' E 005°43'3 2.8
2014-Aug-27 07:33N 59°01' E 005°40'1110.7
2014-Aug-27 06:33N 58°51' E 005°31'1615.7
2014-Aug-27 05:33N 58°36' E 005°20'1717.5
2014-Aug-27 04:33N 58°19' E 005°28'1918.5
2014-Aug-27 03:33N 58°07' E 005°54'6917.3
2014-Aug-26 23:33N 57°47' E 007°59'1919.0
2014-Aug-26 22:33N 57°55' E 008°32'1919.1
2014-Aug-26 21:33N 58°08' E 008°58'1919.0
2014-Aug-26 20:33N 58°22' E 009°22'2119.3
2014-Aug-26 19:29N 58°37' E 009°49'2419.4
2014-Aug-26 18:14N 58°54' E 010°22'1217.7
2014-Aug-26 17:34N 59°04' E 010°34'1717.1
2014-Aug-26 16:33N 59°21' E 010°35'1818.4
2014-Aug-26 15:33N 59°40' E 010°37'1312.5
2014-Aug-26 14:33N 59°52' E 010°39'3 3.3
2014-Aug-26 13:31N 59°54' E 010°44'0 0.0
2014-Aug-26 12:31N 59°54' E 010°44'0 0.0
2014-Aug-26 11:19N 59°54' E 010°44'0 0.0
2014-Aug-26 10:31N 59°54' E 010°44'0 0.0
2014-Aug-26 09:31N 59°54' E 010°44'0 0.0
2014-Aug-26 08:19N 59°54' E 010°44'0 0.0
2014-Aug-26 07:25N 59°54' E 010°44'0 0.0
2014-Aug-26 06:25N 59°54' E 010°44'0 0.0
2014-Aug-26 05:28N 59°54' E 010°44'0 0.0
2014-Aug-26 04:33N 59°54' E 010°44'12 9.9
2014-Aug-26 03:22N 59°43' E 010°35'1214.5
2014-Aug-26 02:33N 59°32' E 010°36'1818.3
2014-Aug-26 01:33N 59°14' E 010°38'1313.2
2014-Aug-26 00:33N 59°00' E 010°37'1010.2
2014-Aug-25 23:33N 58°53' E 010°24'1211.7
2014-Aug-25 22:33N 58°43' E 010°10'4012.1
2014-Aug-25 19:14N 58°11' E 009°25'812.3
2014-Aug-25 18:33N 58°04' E 009°16'1412.9
2014-Aug-25 17:27N 57°53' E 008°60'4313.4
2014-Aug-25 14:15N 57°18' E 008°13'3412.7
2014-Aug-25 11:33N 56°47' E 007°46'5012.6
2014-Aug-25 07:33N 55°58' E 007°23'1212.3
2014-Aug-25 06:33N 55°46' E 007°16'1312.8
2014-Aug-25 05:33N 55°34' E 007°09'1312.8
2014-Aug-25 04:33N 55°22' E 007°05'1312.8
2014-Aug-25 03:33N 55°09' E 007°03'1313.0
2014-Aug-25 02:33N 54°56' E 007°08'1313.1
2014-Aug-25 01:33N 54°43' E 007°14'1313.1
2014-Aug-25 00:33N 54°31' E 007°20'1313.1
2014-Aug-24 23:33N 54°18' E 007°24'1212.3
2014-Aug-24 22:33N 54°10' E 007°39'1312.7
2014-Aug-24 21:34N 54°03' E 007°58'1212.0
2014-Aug-24 20:33N 54°00' E 008°18'1615.6
2014-Aug-24 19:33N 53°54' E 008°42'1515.1
2014-Aug-24 18:33N 53°53' E 009°08'1211.9
2014-Aug-24 17:33N 53°46' E 009°24'1413.8
2014-Aug-24 16:33N 53°35' E 009°38'1110.5
2014-Aug-24 15:33N 53°33' E 009°55'3 2.7
2014-Aug-24 14:32N 53°32' E 009°60'0 0.0
2014-Aug-24 13:26N 53°32' E 009°60'0 0.0
2014-Aug-24 12:32N 53°32' E 009°60'0 0.0
2014-Aug-24 11:32N 53°32' E 009°60'0 0.0
2014-Aug-24 10:32N 53°32' E 009°60'0 0.0
2014-Aug-24 09:32N 53°32' E 009°60'0 0.0
2014-Aug-24 08:32N 53°32' E 009°60'0 0.0
2014-Aug-24 07:32N 53°32' E 009°60'0 0.0
2014-Aug-24 06:32N 53°32' E 009°60'0 0.0
2014-Aug-24 05:32N 53°32' E 009°60'0 0.2
2014-Aug-24 04:33N 53°32' E 009°59'6 5.7
2014-Aug-24 03:33N 53°33' E 009°50'10 9.6
2014-Aug-24 02:33N 53°36' E 009°35'1212.4
2014-Aug-24 01:34N 53°47' E 009°23'1211.9
2014-Aug-24 00:33N 53°53' E 009°06'1313.1
2014-Aug-23 23:33N 53°52' E 008°44'1615.8
2014-Aug-23 22:33N 53°59' E 008°20'1413.8
2014-Aug-23 21:33N 54°02' E 007°57'1818.3
2014-Aug-23 20:33N 54°12' E 007°30'1918.8
2014-Aug-23 19:33N 54°29' E 007°16'  
2014-Aug-20 18:04N 59°05' E 005°00'816.4
2014-Aug-20 17:33N 59°05' E 005°16'1211.7
2014-Aug-20 16:33N 59°01' E 005°38'4 4.1
2014-Aug-20 15:32N 58°58' E 005°44'0 0.0
2014-Aug-20 14:32N 58°58' E 005°44'0 0.0
2014-Aug-20 13:32N 58°58' E 005°44'0 0.0
2014-Aug-20 12:32N 58°58' E 005°44'0 0.0
2014-Aug-20 11:32N 58°58' E 005°44'0 0.0
2014-Aug-20 10:32N 58°58' E 005°44'0 0.0
2014-Aug-20 09:32N 58°58' E 005°44'0 0.0
2014-Aug-20 08:33N 58°58' E 005°44'5 5.0
2014-Aug-20 07:34N 59°02' E 005°37'1211.7
2014-Aug-20 06:33N 58°51' E 005°30'1616.3
2014-Aug-20 05:33N 58°35' E 005°20'1818.0
2014-Aug-20 04:33N 58°19' E 005°32'1918.7
2014-Aug-20 03:33N 58°06' E 005°58'14616.3
2014-Aug-19 18:33N 58°54' E 010°22'1514.7
2014-Aug-19 17:33N 59°07' E 010°36'1818.2
2014-Aug-19 16:33N 59°25' E 010°33'1515.4
2014-Aug-19 15:33N 59°41' E 010°37'1312.7
2014-Aug-19 14:33N 59°53' E 010°40'2 1.8
2014-Aug-19 13:21N 59°54' E 010°44'0 0.0
2014-Aug-19 12:24N 59°54' E 010°44'0 0.0
2014-Aug-19 11:24N 59°54' E 010°44'0 0.0
2014-Aug-19 10:27N 59°54' E 010°44'0 0.0
2014-Aug-19 09:27N 59°54' E 010°44'0 0.0
2014-Aug-19 08:27N 59°54' E 010°44'0 0.0
2014-Aug-19 07:30N 59°54' E 010°44'0 0.0
2014-Aug-19 06:30N 59°54' E 010°44'0 0.0
2014-Aug-19 05:33N 59°54' E 010°44'0 0.1
2014-Aug-19 04:34N 59°54' E 010°44'1410.6
2014-Aug-19 03:14N 59°41' E 010°37'811.9
2014-Aug-19 02:32N 59°33' E 010°37'1414.7
2014-Aug-19 01:33N 59°18' E 010°36'1414.3
2014-Aug-19 00:33N 59°04' E 010°34'1212.1
2014-Aug-18 23:33N 58°53' E 010°24'1212.2
2014-Aug-18 22:33N 58°43' E 010°10'9711.8
2014-Aug-18 14:21N 57°25' E 008°23'9313.5
2014-Aug-18 07:25N 55°58' E 007°23'1914.2
2014-Aug-18 06:04N 55°39' E 007°12'714.2
2014-Aug-18 05:33N 55°32' E 007°09'1414.0
2014-Aug-18 04:33N 55°19' E 007°03'1414.0
2014-Aug-18 03:33N 55°05' E 007°04'1414.0
2014-Aug-18 02:33N 54°51' E 007°10'1413.5
2014-Aug-18 01:33N 54°38' E 007°16'1313.1
2014-Aug-18 00:33N 54°26' E 007°22'7913.1
2014-Aug-17 18:33N 53°49' E 009°22'  
Track history (hours):
 
Tides and Currents Weather Stations Pressure Air Temp Water Temp Dewpoint Dewpoint Depression Visibility Wind Speed Wind Dir Waves Ship Positions

Legend Of The Seas

Operator: Royal Caribbean Cruises Ltd

Last reported at 2014-Aug-27 17:34 UTC. Time now 2014-Aug-28 13:20 UTC.
Position N 59°04' E 005°10'.

Type: Passenger vessel. MMSI: 311378000.

Date/timePositionNaut miles runAvg speedWind from/ knotsBaromVisibWave heightAir tempDewpointWater temp
2014-Aug-27 17:34N 59°04' E 005°10'1313.1
2014-Aug-27 16:33N 59°03' E 005°36'6 5.6
2014-Aug-27 15:32N 58°59' E 005°43'0 0.0
2014-Aug-27 14:32N 58°59' E 005°43'0 0.0
2014-Aug-27 13:32N 58°59' E 005°43'0 0.0
2014-Aug-27 12:32N 58°59' E 005°43'0 0.0
2014-Aug-27 11:32N 58°59' E 005°43'0 0.0
2014-Aug-27 10:32N 58°59' E 005°43'0 0.0
2014-Aug-27 09:32N 58°59' E 005°43'0 0.0
2014-Aug-27 08:32N 58°59' E 005°43'3 2.8
2014-Aug-27 07:33N 59°01' E 005°40'1110.7
2014-Aug-27 06:33N 58°51' E 005°31'1615.7
2014-Aug-27 05:33N 58°36' E 005°20'1717.5
2014-Aug-27 04:33N 58°19' E 005°28'1918.5
2014-Aug-27 03:33N 58°07' E 005°54'6917.3
2014-Aug-26 23:33N 57°47' E 007°59'1919.0
2014-Aug-26 22:33N 57°55' E 008°32'1919.1
2014-Aug-26 21:33N 58°08' E 008°58'1919.0
2014-Aug-26 20:33N 58°22' E 009°22'2119.3
2014-Aug-26 19:29N 58°37' E 009°49'2419.4
2014-Aug-26 18:14N 58°54' E 010°22'1217.7
2014-Aug-26 17:34N 59°04' E 010°34'1717.1
2014-Aug-26 16:33N 59°21' E 010°35'1818.4
2014-Aug-26 15:33N 59°40' E 010°37'1312.5
2014-Aug-26 14:33N 59°52' E 010°39'3 3.3
2014-Aug-26 13:31N 59°54' E 010°44'0 0.0
2014-Aug-26 12:31N 59°54' E 010°44'0 0.0
2014-Aug-26 11:19N 59°54' E 010°44'0 0.0
2014-Aug-26 10:31N 59°54' E 010°44'0 0.0
2014-Aug-26 09:31N 59°54' E 010°44'0 0.0
2014-Aug-26 08:19N 59°54' E 010°44'0 0.0
2014-Aug-26 07:25N 59°54' E 010°44'0 0.0
2014-Aug-26 06:25N 59°54' E 010°44'0 0.0
2014-Aug-26 05:28N 59°54' E 010°44'0 0.0
2014-Aug-26 04:33N 59°54' E 010°44'12 9.9
2014-Aug-26 03:22N 59°43' E 010°35'1214.5
2014-Aug-26 02:33N 59°32' E 010°36'1818.3
2014-Aug-26 01:33N 59°14' E 010°38'1313.2
2014-Aug-26 00:33N 59°00' E 010°37'1010.2
2014-Aug-25 23:33N 58°53' E 010°24'1211.7
2014-Aug-25 22:33N 58°43' E 010°10'4012.1
2014-Aug-25 19:14N 58°11' E 009°25'812.3
2014-Aug-25 18:33N 58°04' E 009°16'1412.9
2014-Aug-25 17:27N 57°53' E 008°60'4313.4
2014-Aug-25 14:15N 57°18' E 008°13'3412.7
2014-Aug-25 11:33N 56°47' E 007°46'5012.6
2014-Aug-25 07:33N 55°58' E 007°23'1212.3
2014-Aug-25 06:33N 55°46' E 007°16'1312.8
2014-Aug-25 05:33N 55°34' E 007°09'1312.8
2014-Aug-25 04:33N 55°22' E 007°05'1312.8
2014-Aug-25 03:33N 55°09' E 007°03'1313.0
2014-Aug-25 02:33N 54°56' E 007°08'1313.1
2014-Aug-25 01:33N 54°43' E 007°14'1313.1
2014-Aug-25 00:33N 54°31' E 007°20'1313.1
2014-Aug-24 23:33N 54°18' E 007°24'1212.3
2014-Aug-24 22:33N 54°10' E 007°39'1312.7
2014-Aug-24 21:34N 54°03' E 007°58'1212.0
2014-Aug-24 20:33N 54°00' E 008°18'1615.6
2014-Aug-24 19:33N 53°54' E 008°42'1515.1
2014-Aug-24 18:33N 53°53' E 009°08'1211.9
2014-Aug-24 17:33N 53°46' E 009°24'1413.8
2014-Aug-24 16:33N 53°35' E 009°38'1110.5
2014-Aug-24 15:33N 53°33' E 009°55'3 2.7
2014-Aug-24 14:32N 53°32' E 009°60'0 0.0
2014-Aug-24 13:26N 53°32' E 009°60'0 0.0
2014-Aug-24 12:32N 53°32' E 009°60'0 0.0
2014-Aug-24 11:32N 53°32' E 009°60'0 0.0
2014-Aug-24 10:32N 53°32' E 009°60'0 0.0
2014-Aug-24 09:32N 53°32' E 009°60'0 0.0
2014-Aug-24 08:32N 53°32' E 009°60'0 0.0
2014-Aug-24 07:32N 53°32' E 009°60'0 0.0
2014-Aug-24 06:32N 53°32' E 009°60'0 0.0
2014-Aug-24 05:32N 53°32' E 009°60'0 0.2
2014-Aug-24 04:33N 53°32' E 009°59'6 5.7
2014-Aug-24 03:33N 53°33' E 009°50'10 9.6
2014-Aug-24 02:33N 53°36' E 009°35'1212.4
2014-Aug-24 01:34N 53°47' E 009°23'1211.9
2014-Aug-24 00:33N 53°53' E 009°06'1313.1
2014-Aug-23 23:33N 53°52' E 008°44'1615.8
2014-Aug-23 22:33N 53°59' E 008°20'1413.8
2014-Aug-23 21:33N 54°02' E 007°57'1818.3
2014-Aug-23 20:33N 54°12' E 007°30'1918.8
2014-Aug-23 19:33N 54°29' E 007°16'  
2014-Aug-20 18:04N 59°05' E 005°00'816.4
2014-Aug-20 17:33N 59°05' E 005°16'1211.7
2014-Aug-20 16:33N 59°01' E 005°38'4 4.1
2014-Aug-20 15:32N 58°58' E 005°44'0 0.0
2014-Aug-20 14:32N 58°58' E 005°44'0 0.0
2014-Aug-20 13:32N 58°58' E 005°44'0 0.0
2014-Aug-20 12:32N 58°58' E 005°44'0 0.0
2014-Aug-20 11:32N 58°58' E 005°44'0 0.0
2014-Aug-20 10:32N 58°58' E 005°44'0 0.0
2014-Aug-20 09:32N 58°58' E 005°44'0 0.0
2014-Aug-20 08:33N 58°58' E 005°44'5 5.0
2014-Aug-20 07:34N 59°02' E 005°37'1211.7
2014-Aug-20 06:33N 58°51' E 005°30'1616.3
2014-Aug-20 05:33N 58°35' E 005°20'1818.0
2014-Aug-20 04:33N 58°19' E 005°32'1918.7
2014-Aug-20 03:33N 58°06' E 005°58'14616.3
2014-Aug-19 18:33N 58°54' E 010°22'1514.7
2014-Aug-19 17:33N 59°07' E 010°36'1818.2
2014-Aug-19 16:33N 59°25' E 010°33'1515.4
2014-Aug-19 15:33N 59°41' E 010°37'1312.7
2014-Aug-19 14:33N 59°53' E 010°40'2 1.8
2014-Aug-19 13:21N 59°54' E 010°44'0 0.0
2014-Aug-19 12:24N 59°54' E 010°44'0 0.0
2014-Aug-19 11:24N 59°54' E 010°44'0 0.0
2014-Aug-19 10:27N 59°54' E 010°44'0 0.0
2014-Aug-19 09:27N 59°54' E 010°44'0 0.0
2014-Aug-19 08:27N 59°54' E 010°44'0 0.0
2014-Aug-19 07:30N 59°54' E 010°44'0 0.0
2014-Aug-19 06:30N 59°54' E 010°44'0 0.0
2014-Aug-19 05:33N 59°54' E 010°44'0 0.1
2014-Aug-19 04:34N 59°54' E 010°44'1410.6
2014-Aug-19 03:14N 59°41' E 010°37'811.9
2014-Aug-19 02:32N 59°33' E 010°37'1414.7
2014-Aug-19 01:33N 59°18' E 010°36'1414.3
2014-Aug-19 00:33N 59°04' E 010°34'1212.1
2014-Aug-18 23:33N 58°53' E 010°24'1212.2
2014-Aug-18 22:33N 58°43' E 010°10'9711.8
2014-Aug-18 14:21N 57°25' E 008°23'9313.5
2014-Aug-18 07:25N 55°58' E 007°23'1914.2
2014-Aug-18 06:04N 55°39' E 007°12'714.2
2014-Aug-18 05:33N 55°32' E 007°09'1414.0
2014-Aug-18 04:33N 55°19' E 007°03'1414.0
2014-Aug-18 03:33N 55°05' E 007°04'1414.0
2014-Aug-18 02:33N 54°51' E 007°10'1413.5
2014-Aug-18 01:33N 54°38' E 007°16'1313.1
2014-Aug-18 00:33N 54°26' E 007°22'7913.1
2014-Aug-17 18:33N 53°49' E 009°22'  

Dump ship's entire track history